sensor_id;sensor_type;location;lat;lon;timestamp;noise_LAeq;noise_LA_min;noise_LA_max;noise_LA01;noise_LA95
79200;Laerm;68628;48.714;9.472;2023-08-21T00:01:40;50.74;50.06;53.54;;
79200;Laerm;68628;48.714;9.472;2023-08-21T00:04:06;50.94;50.00;53.83;;
79200;Laerm;68628;48.714;9.472;2023-08-21T00:06:32;50.76;50.15;52.41;;
79200;Laerm;68628;48.714;9.472;2023-08-21T00:08:57;50.86;50.23;52.86;;
79200;Laerm;68628;48.714;9.472;2023-08-21T00:11:23;51.15;50.17;55.21;;
79200;Laerm;68628;48.714;9.472;2023-08-21T00:13:49;50.95;50.18;54.73;;
79200;Laerm;68628;48.714;9.472;2023-08-21T00:16:17;50.83;50.16;52.27;;
79200;Laerm;68628;48.714;9.472;2023-08-21T00:18:43;50.81;50.15;52.31;;
79200;Laerm;68628;48.714;9.472;2023-08-21T00:21:09;50.82;50.08;52.19;;
79200;Laerm;68628;48.714;9.472;2023-08-21T00:23:34;50.81;50.17;52.88;;
79200;Laerm;68628;48.714;9.472;2023-08-21T00:26:00;50.86;50.19;51.60;;
79200;Laerm;68628;48.714;9.472;2023-08-21T00:28:26;50.97;50.33;53.57;;
79200;Laerm;68628;48.714;9.472;2023-08-21T00:31:01;51.07;50.26;52.75;;
79200;Laerm;68628;48.714;9.472;2023-08-21T00:33:26;50.96;50.23;53.80;;
79200;Laerm;68628;48.714;9.472;2023-08-21T00:35:52;50.83;50.13;51.90;;
79200;Laerm;68628;48.714;9.472;2023-08-21T00:38:17;50.86;50.30;52.28;;
79200;Laerm;68628;48.714;9.472;2023-08-21T00:40:43;50.97;50.29;52.58;;
79200;Laerm;68628;48.714;9.472;2023-08-21T00:43:09;51.05;50.22;53.15;;
79200;Laerm;68628;48.714;9.472;2023-08-21T00:45:34;50.78;50.18;51.59;;
79200;Laerm;68628;48.714;9.472;2023-08-21T00:48:00;50.83;50.28;52.96;;
79200;Laerm;68628;48.714;9.472;2023-08-21T00:50:25;51.04;50.27;53.29;;
79200;Laerm;68628;48.714;9.472;2023-08-21T00:52:51;50.96;50.33;52.14;;
79200;Laerm;68628;48.714;9.472;2023-08-21T00:55:17;50.98;50.32;52.48;;
79200;Laerm;68628;48.714;9.472;2023-08-21T00:57:43;50.92;50.30;53.29;;
79200;Laerm;68628;48.714;9.472;2023-08-21T01:00:09;50.93;50.37;52.13;;
79200;Laerm;68628;48.714;9.472;2023-08-21T01:02:36;50.90;50.11;53.82;;
79200;Laerm;68628;48.714;9.472;2023-08-21T01:05:01;50.76;50.20;52.69;;
79200;Laerm;68628;48.714;9.472;2023-08-21T01:07:27;50.80;50.17;51.99;;
79200;Laerm;68628;48.714;9.472;2023-08-21T01:10:11;50.77;50.06;52.16;;
79200;Laerm;68628;48.714;9.472;2023-08-21T01:12:57;51.54;50.11;56.04;;
79200;Laerm;68628;48.714;9.472;2023-08-21T01:15:27;52.66;50.46;56.95;;
79200;Laerm;68628;48.714;9.472;2023-08-21T01:17:54;50.84;50.17;54.56;;
79200;Laerm;68628;48.714;9.472;2023-08-21T01:20:21;50.87;50.31;51.66;;
79200;Laerm;68628;48.714;9.472;2023-08-21T01:22:47;50.81;50.13;52.19;;
79200;Laerm;68628;48.714;9.472;2023-08-21T01:25:13;51.17;50.24;53.57;;
79200;Laerm;68628;48.714;9.472;2023-08-21T01:27:46;50.85;50.16;56.38;;
79200;Laerm;68628;48.714;9.472;2023-08-21T01:30:14;50.96;50.27;56.64;;
79200;Laerm;68628;48.714;9.472;2023-08-21T01:35:20;50.78;50.24;53.02;;
79200;Laerm;68628;48.714;9.472;2023-08-21T01:37:47;50.79;50.22;51.47;;
79200;Laerm;68628;48.714;9.472;2023-08-21T01:40:23;50.80;50.16;52.59;;
79200;Laerm;68628;48.714;9.472;2023-08-21T01:42:49;50.87;50.21;53.56;;
79200;Laerm;68628;48.714;9.472;2023-08-21T01:45:15;50.84;50.14;53.51;;
79200;Laerm;68628;48.714;9.472;2023-08-21T01:47:40;50.84;50.20;52.79;;
79200;Laerm;68628;48.714;9.472;2023-08-21T01:50:07;50.84;50.18;52.75;;
79200;Laerm;68628;48.714;9.472;2023-08-21T01:52:33;50.83;50.19;51.87;;
79200;Laerm;68628;48.714;9.472;2023-08-21T01:54:59;50.86;50.09;52.77;;
79200;Laerm;68628;48.714;9.472;2023-08-21T01:57:25;51.46;50.16;57.77;;
79200;Laerm;68628;48.714;9.472;2023-08-21T01:59:51;50.81;50.09;53.11;;
79200;Laerm;68628;48.714;9.472;2023-08-21T02:02:16;50.78;50.17;51.78;;
79200;Laerm;68628;48.714;9.472;2023-08-21T02:04:42;50.75;50.13;52.04;;
79200;Laerm;68628;48.714;9.472;2023-08-21T02:07:07;50.89;50.20;53.58;;
79200;Laerm;68628;48.714;9.472;2023-08-21T02:09:33;50.85;50.24;52.89;;
79200;Laerm;68628;48.714;9.472;2023-08-21T02:11:59;50.95;50.24;53.24;;
79200;Laerm;68628;48.714;9.472;2023-08-21T02:14:25;50.91;50.21;55.17;;
79200;Laerm;68628;48.714;9.472;2023-08-21T02:16:50;51.11;50.09;52.85;;
79200;Laerm;68628;48.714;9.472;2023-08-21T02:19:16;50.84;50.21;51.41;;
79200;Laerm;68628;48.714;9.472;2023-08-21T02:21:41;50.93;50.27;56.12;;
79200;Laerm;68628;48.714;9.472;2023-08-21T02:24:07;50.95;50.17;53.75;;
79200;Laerm;68628;48.714;9.472;2023-08-21T02:26:33;50.93;50.35;51.59;;
79200;Laerm;68628;48.714;9.472;2023-08-21T02:28:58;50.95;50.32;53.37;;
79200;Laerm;68628;48.714;9.472;2023-08-21T02:31:24;51.06;50.42;52.34;;
79200;Laerm;68628;48.714;9.472;2023-08-21T02:33:50;50.97;50.32;53.35;;
79200;Laerm;68628;48.714;9.472;2023-08-21T02:36:16;50.96;50.21;52.46;;
79200;Laerm;68628;48.714;9.472;2023-08-21T02:38:42;50.81;50.22;51.43;;
79200;Laerm;68628;48.714;9.472;2023-08-21T02:41:07;50.86;50.25;51.87;;
79200;Laerm;68628;48.714;9.472;2023-08-21T02:43:34;50.86;50.22;52.26;;
79200;Laerm;68628;48.714;9.472;2023-08-21T02:45:59;50.93;50.25;52.52;;
79200;Laerm;68628;48.714;9.472;2023-08-21T02:48:25;51.06;50.29;54.81;;
79200;Laerm;68628;48.714;9.472;2023-08-21T02:50:51;50.83;50.02;51.95;;
79200;Laerm;68628;48.714;9.472;2023-08-21T02:53:17;50.94;50.24;51.85;;
79200;Laerm;68628;48.714;9.472;2023-08-21T02:55:42;50.86;50.29;51.40;;
79200;Laerm;68628;48.714;9.472;2023-08-21T02:58:08;50.81;50.20;51.46;;
79200;Laerm;68628;48.714;9.472;2023-08-21T03:00:35;50.82;50.17;52.12;;
79200;Laerm;68628;48.714;9.472;2023-08-21T03:03:01;51.00;50.19;53.22;;
79200;Laerm;68628;48.714;9.472;2023-08-21T03:05:27;50.77;50.05;53.59;;
79200;Laerm;68628;48.714;9.472;2023-08-21T03:07:52;50.87;50.23;52.81;;
79200;Laerm;68628;48.714;9.472;2023-08-21T03:10:18;50.85;50.10;53.62;;
79200;Laerm;68628;48.714;9.472;2023-08-21T03:12:44;50.86;50.20;51.40;;
79200;Laerm;68628;48.714;9.472;2023-08-21T03:15:09;50.84;50.26;51.47;;
79200;Laerm;68628;48.714;9.472;2023-08-21T03:17:35;50.83;50.20;51.85;;
79200;Laerm;68628;48.714;9.472;2023-08-21T03:20:02;50.97;50.26;54.06;;
79200;Laerm;68628;48.714;9.472;2023-08-21T03:22:30;50.88;50.00;54.07;;
79200;Laerm;68628;48.714;9.472;2023-08-21T03:24:57;50.80;50.06;51.69;;
79200;Laerm;68628;48.714;9.472;2023-08-21T03:27:24;50.95;50.33;53.85;;
79200;Laerm;68628;48.714;9.472;2023-08-21T03:29:50;51.04;50.38;52.17;;
79200;Laerm;68628;48.714;9.472;2023-08-21T03:32:17;50.92;50.27;51.38;;
79200;Laerm;68628;48.714;9.472;2023-08-21T03:34:44;50.85;50.27;51.61;;
79200;Laerm;68628;48.714;9.472;2023-08-21T03:37:10;50.86;50.14;51.64;;
79200;Laerm;68628;48.714;9.472;2023-08-21T03:39:36;50.92;50.27;52.37;;
79200;Laerm;68628;48.714;9.472;2023-08-21T03:42:02;50.90;50.16;53.04;;
79200;Laerm;68628;48.714;9.472;2023-08-21T03:44:28;51.46;50.31;55.84;;
79200;Laerm;68628;48.714;9.472;2023-08-21T03:46:54;50.80;50.23;51.70;;
79200;Laerm;68628;48.714;9.472;2023-08-21T03:49:19;50.91;50.09;53.32;;
79200;Laerm;68628;48.714;9.472;2023-08-21T03:51:45;50.98;50.37;52.68;;
79200;Laerm;68628;48.714;9.472;2023-08-21T03:54:10;50.95;50.28;51.56;;
79200;Laerm;68628;48.714;9.472;2023-08-21T03:56:36;50.87;50.30;51.41;;
79200;Laerm;68628;48.714;9.472;2023-08-21T03:59:02;50.84;50.16;51.52;;
79200;Laerm;68628;48.714;9.472;2023-08-21T04:01:28;50.92;50.41;51.42;;
79200;Laerm;68628;48.714;9.472;2023-08-21T04:03:54;50.94;50.32;51.43;;
79200;Laerm;68628;48.714;9.472;2023-08-21T04:06:20;50.93;50.46;51.44;;
79200;Laerm;68628;48.714;9.472;2023-08-21T04:08:46;50.93;50.29;51.40;;
79200;Laerm;68628;48.714;9.472;2023-08-21T04:11:11;50.96;50.44;51.56;;
79200;Laerm;68628;48.714;9.472;2023-08-21T04:13:37;50.91;50.32;51.48;;
79200;Laerm;68628;48.714;9.472;2023-08-21T04:16:03;50.87;50.25;51.43;;
79200;Laerm;68628;48.714;9.472;2023-08-21T04:18:28;51.08;50.25;52.16;;
79200;Laerm;68628;48.714;9.472;2023-08-21T04:20:54;50.90;50.09;53.34;;
79200;Laerm;68628;48.714;9.472;2023-08-21T04:23:20;51.18;50.25;57.48;;
79200;Laerm;68628;48.714;9.472;2023-08-21T04:25:48;51.09;50.21;57.06;;
79200;Laerm;68628;48.714;9.472;2023-08-21T04:28:13;50.87;50.13;52.68;;
79200;Laerm;68628;48.714;9.472;2023-08-21T04:30:42;50.77;50.08;53.54;;
79200;Laerm;68628;48.714;9.472;2023-08-21T04:33:08;50.82;50.10;54.75;;
79200;Laerm;68628;48.714;9.472;2023-08-21T04:35:38;50.84;49.95;54.32;;
79200;Laerm;68628;48.714;9.472;2023-08-21T04:38:04;50.48;48.32;58.50;;
79200;Laerm;68628;48.714;9.472;2023-08-21T04:40:30;50.19;47.72;54.08;;
79200;Laerm;68628;48.714;9.472;2023-08-21T04:42:55;50.31;48.88;54.34;;
79200;Laerm;68628;48.714;9.472;2023-08-21T04:45:21;50.56;48.81;57.51;;
79200;Laerm;68628;48.714;9.472;2023-08-21T04:47:46;49.20;47.07;54.58;;
79200;Laerm;68628;48.714;9.472;2023-08-21T04:50:12;49.18;46.98;55.70;;
79200;Laerm;68628;48.714;9.472;2023-08-21T04:52:38;48.63;46.61;56.20;;
79200;Laerm;68628;48.714;9.472;2023-08-21T04:55:05;50.28;46.95;59.88;;
79200;Laerm;68628;48.714;9.472;2023-08-21T04:57:31;48.54;45.75;59.68;;
79200;Laerm;68628;48.714;9.472;2023-08-21T04:59:57;46.42;45.34;64.88;;
79200;Laerm;68628;48.714;9.472;2023-08-21T05:02:22;45.66;45.06;46.23;;
79200;Laerm;68628;48.714;9.472;2023-08-21T05:04:48;45.44;44.85;46.04;;
79200;Laerm;68628;48.714;9.472;2023-08-21T05:07:13;45.23;44.63;45.93;;
79200;Laerm;68628;48.714;9.472;2023-08-21T05:09:39;47.70;44.04;74.94;;
79200;Laerm;68628;48.714;9.472;2023-08-21T05:12:07;44.94;44.30;45.45;;
79200;Laerm;68628;48.714;9.472;2023-08-21T05:14:33;44.83;44.18;45.42;;
79200;Laerm;68628;48.714;9.472;2023-08-21T05:16:58;44.74;44.22;45.30;;
79200;Laerm;68628;48.714;9.472;2023-08-21T05:19:24;44.66;44.14;45.14;;
79200;Laerm;68628;48.714;9.472;2023-08-21T05:21:50;44.60;44.02;45.07;;
79200;Laerm;68628;48.714;9.472;2023-08-21T05:24:15;44.54;43.93;45.10;;
79200;Laerm;68628;48.714;9.472;2023-08-21T05:26:41;44.50;43.92;45.01;;
79200;Laerm;68628;48.714;9.472;2023-08-21T05:29:07;44.45;43.79;45.00;;
79200;Laerm;68628;48.714;9.472;2023-08-21T05:31:33;44.43;43.86;44.97;;
79200;Laerm;68628;48.714;9.472;2023-08-21T05:33:58;44.40;43.81;44.97;;
79200;Laerm;68628;48.714;9.472;2023-08-21T05:36:24;44.92;43.80;66.39;;
79200;Laerm;68628;48.714;9.472;2023-08-21T05:38:50;44.34;43.74;44.97;;
79200;Laerm;68628;48.714;9.472;2023-08-21T05:41:17;46.11;43.82;71.96;;
79200;Laerm;68628;48.714;9.472;2023-08-21T05:43:43;44.32;43.71;44.82;;
79200;Laerm;68628;48.714;9.472;2023-08-21T05:46:08;44.31;43.68;44.90;;
79200;Laerm;68628;48.714;9.472;2023-08-21T05:48:34;44.31;43.69;44.83;;
79200;Laerm;68628;48.714;9.472;2023-08-21T05:51:00;44.31;43.76;44.88;;
79200;Laerm;68628;48.714;9.472;2023-08-21T05:53:26;44.31;43.81;44.76;;
79200;Laerm;68628;48.714;9.472;2023-08-21T05:55:53;44.28;43.75;44.83;;
79200;Laerm;68628;48.714;9.472;2023-08-21T05:58:19;44.32;43.72;44.82;;
79200;Laerm;68628;48.714;9.472;2023-08-21T06:00:46;44.58;43.75;62.71;;
79200;Laerm;68628;48.714;9.472;2023-08-21T06:03:13;44.36;43.79;44.85;;
79200;Laerm;68628;48.714;9.472;2023-08-21T06:05:39;44.38;43.83;44.90;;
79200;Laerm;68628;48.714;9.472;2023-08-21T06:08:04;44.36;43.83;44.83;;
79200;Laerm;68628;48.714;9.472;2023-08-21T06:10:33;44.38;43.79;44.98;;
79200;Laerm;68628;48.714;9.472;2023-08-21T06:12:59;44.39;43.90;44.86;;
79200;Laerm;68628;48.714;9.472;2023-08-21T06:15:24;44.44;43.97;45.03;;
79200;Laerm;68628;48.714;9.472;2023-08-21T06:17:50;44.45;43.94;44.93;;
79200;Laerm;68628;48.714;9.472;2023-08-21T06:20:15;45.63;43.99;69.68;;
79200;Laerm;68628;48.714;9.472;2023-08-21T06:22:41;45.55;43.95;69.61;;
79200;Laerm;68628;48.714;9.472;2023-08-21T06:25:08;47.10;43.93;71.15;;
79200;Laerm;68628;48.714;9.472;2023-08-21T06:27:34;44.54;44.10;45.04;;
79200;Laerm;68628;48.714;9.472;2023-08-21T06:29:59;44.82;43.91;61.64;;
79200;Laerm;68628;48.714;9.472;2023-08-21T06:32:25;44.60;44.13;55.49;;
79200;Laerm;68628;48.714;9.472;2023-08-21T06:34:51;44.57;44.11;45.07;;
79200;Laerm;68628;48.714;9.472;2023-08-21T06:37:16;44.75;43.93;61.54;;
79200;Laerm;68628;48.714;9.472;2023-08-21T06:39:42;44.54;43.99;45.08;;
79200;Laerm;68628;48.714;9.472;2023-08-21T06:42:08;44.74;44.25;45.32;;
79200;Laerm;68628;48.714;9.472;2023-08-21T06:44:33;44.84;44.32;45.31;;
79200;Laerm;68628;48.714;9.472;2023-08-21T06:46:59;44.93;44.50;45.48;;
79200;Laerm;68628;48.714;9.472;2023-08-21T06:49:24;45.00;44.47;45.46;;
79200;Laerm;68628;48.714;9.472;2023-08-21T06:51:50;45.31;44.30;62.12;;
79200;Laerm;68628;48.714;9.472;2023-08-21T06:54:16;45.04;44.57;45.47;;
79200;Laerm;68628;48.714;9.472;2023-08-21T06:56:43;45.01;44.55;45.45;;
79200;Laerm;68628;48.714;9.472;2023-08-21T06:59:09;45.28;44.56;61.33;;
79200;Laerm;68628;48.714;9.472;2023-08-21T07:01:35;45.04;44.01;45.71;;
79200;Laerm;68628;48.714;9.472;2023-08-21T07:04:01;44.63;43.96;45.16;;
79200;Laerm;68628;48.714;9.472;2023-08-21T07:06:30;45.48;44.33;65.98;;
79200;Laerm;68628;48.714;9.472;2023-08-21T07:08:56;45.04;44.45;45.88;;
79200;Laerm;68628;48.714;9.472;2023-08-21T07:11:22;45.07;44.46;46.26;;
79200;Laerm;68628;48.714;9.472;2023-08-21T07:13:48;45.08;44.46;45.56;;
79200;Laerm;68628;48.714;9.472;2023-08-21T07:16:14;45.36;44.83;45.98;;
79200;Laerm;68628;48.714;9.472;2023-08-21T07:18:40;45.48;45.02;46.02;;
79200;Laerm;68628;48.714;9.472;2023-08-21T07:21:05;45.55;45.07;46.03;;
79200;Laerm;68628;48.714;9.472;2023-08-21T07:23:31;45.33;44.57;46.02;;
79200;Laerm;68628;48.714;9.472;2023-08-21T07:25:58;45.28;44.57;45.87;;
79200;Laerm;68628;48.714;9.472;2023-08-21T07:28:24;44.87;43.99;45.67;;
79200;Laerm;68628;48.714;9.472;2023-08-21T07:30:59;44.93;44.03;45.60;;
79200;Laerm;68628;48.714;9.472;2023-08-21T07:33:26;44.91;44.21;45.70;;
79200;Laerm;68628;48.714;9.472;2023-08-21T07:36:04;44.23;42.97;45.31;;
79200;Laerm;68628;48.714;9.472;2023-08-21T07:38:31;44.94;44.09;45.71;;
79200;Laerm;68628;48.714;9.472;2023-08-21T07:41:08;45.34;43.90;46.39;;
79200;Laerm;68628;48.714;9.472;2023-08-21T07:43:37;44.47;43.40;45.21;;
79200;Laerm;68628;48.714;9.472;2023-08-21T07:46:08;44.73;43.45;45.68;;
79200;Laerm;68628;48.714;9.472;2023-08-21T07:48:36;44.05;43.28;44.97;;
79200;Laerm;68628;48.714;9.472;2023-08-21T07:51:02;43.75;42.26;45.09;;
79200;Laerm;68628;48.714;9.472;2023-08-21T07:53:28;44.79;42.31;46.20;;
79200;Laerm;68628;48.714;9.472;2023-08-21T07:55:53;44.95;43.26;46.27;;
79200;Laerm;68628;48.714;9.472;2023-08-21T07:58:19;44.20;42.91;45.43;;
79200;Laerm;68628;48.714;9.472;2023-08-21T08:00:45;44.03;43.26;44.76;;
79200;Laerm;68628;48.714;9.472;2023-08-21T08:03:11;43.75;41.29;67.18;;
79200;Laerm;68628;48.714;9.472;2023-08-21T08:05:40;43.60;41.41;45.30;;
79200;Laerm;68628;48.714;9.472;2023-08-21T08:08:07;44.29;42.20;45.97;;
79200;Laerm;68628;48.714;9.472;2023-08-21T08:10:32;44.21;43.31;45.28;;
79200;Laerm;68628;48.714;9.472;2023-08-21T08:12:58;44.67;43.41;45.55;;
79200;Laerm;68628;48.714;9.472;2023-08-21T08:15:24;42.42;40.37;45.22;;
79200;Laerm;68628;48.714;9.472;2023-08-21T08:17:49;51.26;39.46;79.01;;
79200;Laerm;68628;48.714;9.472;2023-08-21T08:20:19;58.32;40.98;79.68;;
79200;Laerm;68628;48.714;9.472;2023-08-21T08:22:45;53.37;49.02;63.95;;
79200;Laerm;68628;48.714;9.472;2023-08-21T08:25:11;53.47;49.24;63.84;;
79200;Laerm;68628;48.714;9.472;2023-08-21T08:27:37;54.41;48.99;66.28;;
79200;Laerm;68628;48.714;9.472;2023-08-21T08:30:04;51.30;48.93;60.33;;
79200;Laerm;68628;48.714;9.472;2023-08-21T08:32:30;52.63;48.91;62.40;;
79200;Laerm;68628;48.714;9.472;2023-08-21T08:34:55;51.48;48.96;61.65;;
79200;Laerm;68628;48.714;9.472;2023-08-21T08:37:21;51.48;49.13;61.13;;
79200;Laerm;68628;48.714;9.472;2023-08-21T08:39:49;52.80;48.81;63.51;;
79200;Laerm;68628;48.714;9.472;2023-08-21T08:42:15;51.42;48.79;60.49;;
79200;Laerm;68628;48.714;9.472;2023-08-21T08:44:43;50.60;48.55;57.48;;
79200;Laerm;68628;48.714;9.472;2023-08-21T08:47:11;52.26;49.03;60.24;;
79200;Laerm;68628;48.714;9.472;2023-08-21T08:49:37;53.44;48.78;71.18;;
79200;Laerm;68628;48.714;9.472;2023-08-21T08:52:04;52.27;49.08;60.29;;
79200;Laerm;68628;48.714;9.472;2023-08-21T08:54:31;51.47;48.89;58.78;;
79200;Laerm;68628;48.714;9.472;2023-08-21T08:56:58;54.21;48.60;64.58;;
79200;Laerm;68628;48.714;9.472;2023-08-21T08:59:24;54.11;48.87;64.50;;
79200;Laerm;68628;48.714;9.472;2023-08-21T09:01:49;53.29;48.73;66.94;;
79200;Laerm;68628;48.714;9.472;2023-08-21T09:04:15;54.13;48.68;65.68;;
79200;Laerm;68628;48.714;9.472;2023-08-21T09:06:41;55.86;48.59;71.55;;
79200;Laerm;68628;48.714;9.472;2023-08-21T09:09:08;54.56;48.92;65.19;;
79200;Laerm;68628;48.714;9.472;2023-08-21T09:11:36;53.26;48.72;59.76;;
79200;Laerm;68628;48.714;9.472;2023-08-21T09:14:01;55.81;48.90;64.46;;
79200;Laerm;68628;48.714;9.472;2023-08-21T09:16:27;57.28;49.17;73.48;;
79200;Laerm;68628;48.714;9.472;2023-08-21T09:18:56;53.59;49.09;63.28;;
79200;Laerm;68628;48.714;9.472;2023-08-21T09:21:24;53.56;48.21;61.05;;
79200;Laerm;68628;48.714;9.472;2023-08-21T09:24:00;58.09;49.28;72.05;;
79200;Laerm;68628;48.714;9.472;2023-08-21T09:26:26;56.11;49.55;65.27;;
79200;Laerm;68628;48.714;9.472;2023-08-21T09:28:53;53.68;48.84;63.32;;
79200;Laerm;68628;48.714;9.472;2023-08-21T09:31:37;56.58;48.93;66.27;;
79200;Laerm;68628;48.714;9.472;2023-08-21T09:34:04;54.76;49.18;63.66;;
79200;Laerm;68628;48.714;9.472;2023-08-21T09:36:34;57.43;50.27;69.14;;
79200;Laerm;68628;48.714;9.472;2023-08-21T09:39:00;55.17;49.83;66.81;;
79200;Laerm;68628;48.714;9.472;2023-08-21T09:41:26;56.33;50.28;69.10;;
79200;Laerm;68628;48.714;9.472;2023-08-21T09:43:52;56.83;50.05;68.03;;
79200;Laerm;68628;48.714;9.472;2023-08-21T09:46:25;57.00;49.19;67.42;;
79200;Laerm;68628;48.714;9.472;2023-08-21T09:48:55;56.47;50.26;65.38;;
79200;Laerm;68628;48.714;9.472;2023-08-21T09:51:21;57.12;50.28;66.55;;
79200;Laerm;68628;48.714;9.472;2023-08-21T09:53:49;57.28;50.47;66.27;;
79200;Laerm;68628;48.714;9.472;2023-08-21T09:56:18;59.00;51.15;68.73;;
79200;Laerm;68628;48.714;9.472;2023-08-21T09:58:48;60.49;51.13;72.55;;
79200;Laerm;68628;48.714;9.472;2023-08-21T10:01:17;59.40;51.27;70.97;;
79200;Laerm;68628;48.714;9.472;2023-08-21T10:03:46;63.44;51.71;79.09;;
79200;Laerm;68628;48.714;9.472;2023-08-21T10:06:17;60.09;51.91;69.28;;
79200;Laerm;68628;48.714;9.472;2023-08-21T10:08:48;60.52;50.10;69.31;;
79200;Laerm;68628;48.714;9.472;2023-08-21T10:11:20;59.41;52.16;77.78;;
79200;Laerm;68628;48.714;9.472;2023-08-21T10:13:46;61.99;50.82;75.87;;
79200;Laerm;68628;48.714;9.472;2023-08-21T10:16:13;59.00;50.51;67.88;;
79200;Laerm;68628;48.714;9.472;2023-08-21T10:18:44;58.51;49.05;72.67;;
79200;Laerm;68628;48.714;9.472;2023-08-21T10:21:17;61.08;50.47;73.74;;
79200;Laerm;68628;48.714;9.472;2023-08-21T10:23:49;61.79;51.78;72.70;;
79200;Laerm;68628;48.714;9.472;2023-08-21T10:26:19;62.43;52.82;72.94;;
79200;Laerm;68628;48.714;9.472;2023-08-21T10:28:55;59.49;51.72;69.89;;
79200;Laerm;68628;48.714;9.472;2023-08-21T10:31:39;58.27;51.12;68.86;;
79200;Laerm;68628;48.714;9.472;2023-08-21T10:34:11;60.01;50.71;72.95;;
79200;Laerm;68628;48.714;9.472;2023-08-21T10:39:23;61.74;51.29;73.56;;
79200;Laerm;68628;48.714;9.472;2023-08-21T10:47:30;64.58;52.69;75.27;;
79200;Laerm;68628;48.714;9.472;2023-08-21T10:50:05;61.32;51.88;73.67;;
79200;Laerm;68628;48.714;9.472;2023-08-21T10:52:43;67.00;53.97;76.17;;
79200;Laerm;68628;48.714;9.472;2023-08-21T10:55:13;62.73;52.40;72.30;;
79200;Laerm;68628;48.714;9.472;2023-08-21T10:57:39;60.88;52.14;73.84;;
79200;Laerm;68628;48.714;9.472;2023-08-21T11:00:12;62.49;53.19;71.75;;
79200;Laerm;68628;48.714;9.472;2023-08-21T11:02:49;62.52;51.97;71.24;;
79200;Laerm;68628;48.714;9.472;2023-08-21T11:05:16;63.87;53.15;77.14;;
79200;Laerm;68628;48.714;9.472;2023-08-21T11:07:43;61.28;52.86;73.10;;
79200;Laerm;68628;48.714;9.472;2023-08-21T11:10:19;56.60;51.54;66.68;;
79200;Laerm;68628;48.714;9.472;2023-08-21T11:12:56;61.02;52.07;73.08;;
79200;Laerm;68628;48.714;9.472;2023-08-21T11:15:24;62.46;54.51;77.79;;
79200;Laerm;68628;48.714;9.472;2023-08-21T11:18:02;64.64;54.65;78.98;;
79200;Laerm;68628;48.714;9.472;2023-08-21T11:20:37;61.49;51.55;74.03;;
79200;Laerm;68628;48.714;9.472;2023-08-21T11:23:05;64.46;51.70;76.23;;
79200;Laerm;68628;48.714;9.472;2023-08-21T11:25:38;63.40;52.52;79.15;;
79200;Laerm;68628;48.714;9.472;2023-08-21T11:28:06;61.19;52.58;70.16;;
79200;Laerm;68628;48.714;9.472;2023-08-21T11:30:32;57.39;52.12;64.62;;
79200;Laerm;68628;48.714;9.472;2023-08-21T11:33:13;60.54;53.01;69.06;;
79200;Laerm;68628;48.714;9.472;2023-08-21T11:35:39;61.36;53.55;70.90;;
79200;Laerm;68628;48.714;9.472;2023-08-21T11:38:06;61.35;51.94;71.53;;
79200;Laerm;68628;48.714;9.472;2023-08-21T11:40:35;60.73;53.81;69.74;;
79200;Laerm;68628;48.714;9.472;2023-08-21T11:43:03;62.16;55.65;69.66;;
79200;Laerm;68628;48.714;9.472;2023-08-21T11:45:29;60.07;53.35;76.47;;
79200;Laerm;68628;48.714;9.472;2023-08-21T11:47:58;63.47;53.71;73.78;;
79200;Laerm;68628;48.714;9.472;2023-08-21T11:50:25;61.68;51.66;70.86;;
79200;Laerm;68628;48.714;9.472;2023-08-21T11:52:52;63.01;51.72;74.88;;
79200;Laerm;68628;48.714;9.472;2023-08-21T11:55:18;58.82;50.67;66.81;;
79200;Laerm;68628;48.714;9.472;2023-08-21T11:57:52;59.06;52.09;71.44;;
79200;Laerm;68628;48.714;9.472;2023-08-21T12:00:27;60.01;51.50;69.38;;
79200;Laerm;68628;48.714;9.472;2023-08-21T12:05:23;59.13;53.72;67.44;;
79200;Laerm;68628;48.714;9.472;2023-08-21T12:07:50;65.64;52.61;77.68;;
79200;Laerm;68628;48.714;9.472;2023-08-21T12:10:37;59.52;51.93;68.70;;
79200;Laerm;68628;48.714;9.472;2023-08-21T12:13:03;58.98;51.72;67.76;;
79200;Laerm;68628;48.714;9.472;2023-08-21T12:15:29;58.56;51.37;73.73;;
79200;Laerm;68628;48.714;9.472;2023-08-21T12:17:54;58.64;52.21;68.88;;
79200;Laerm;68628;48.714;9.472;2023-08-21T12:20:20;58.62;51.74;66.26;;
79200;Laerm;68628;48.714;9.472;2023-08-21T12:22:46;57.76;53.21;68.31;;
79200;Laerm;68628;48.714;9.472;2023-08-21T12:25:13;61.99;52.25;73.77;;
79200;Laerm;68628;48.714;9.472;2023-08-21T12:27:38;59.95;51.01;72.06;;
79200;Laerm;68628;48.714;9.472;2023-08-21T12:30:06;57.14;50.11;67.90;;
79200;Laerm;68628;48.714;9.472;2023-08-21T12:32:32;58.82;50.63;70.19;;
79200;Laerm;68628;48.714;9.472;2023-08-21T12:35:00;56.82;50.60;66.13;;
79200;Laerm;68628;48.714;9.472;2023-08-21T12:37:26;61.16;53.25;68.63;;
79200;Laerm;68628;48.714;9.472;2023-08-21T12:39:53;62.10;52.70;67.76;;
79200;Laerm;68628;48.714;9.472;2023-08-21T12:42:20;56.54;49.43;67.86;;
79200;Laerm;68628;48.714;9.472;2023-08-21T12:44:45;57.78;50.56;66.29;;
79200;Laerm;68628;48.714;9.472;2023-08-21T12:47:11;58.79;51.80;67.95;;
79200;Laerm;68628;48.714;9.472;2023-08-21T12:49:37;54.75;49.81;62.30;;
79200;Laerm;68628;48.714;9.472;2023-08-21T12:52:03;58.44;50.38;68.26;;
79200;Laerm;68628;48.714;9.472;2023-08-21T12:54:31;64.64;50.16;70.62;;
79200;Laerm;68628;48.714;9.472;2023-08-21T12:56:56;57.56;50.10;65.55;;
79200;Laerm;68628;48.714;9.472;2023-08-21T12:59:22;62.90;52.85;72.74;;
79200;Laerm;68628;48.714;9.472;2023-08-21T13:01:48;64.55;52.18;75.68;;
79200;Laerm;68628;48.714;9.472;2023-08-21T13:04:15;65.42;51.74;72.95;;
79200;Laerm;68628;48.714;9.472;2023-08-21T13:06:40;63.87;52.60;72.24;;
79200;Laerm;68628;48.714;9.472;2023-08-21T13:09:07;59.95;51.37;75.57;;
79200;Laerm;68628;48.714;9.472;2023-08-21T13:11:32;55.31;50.57;62.00;;
79200;Laerm;68628;48.714;9.472;2023-08-21T13:13:58;56.91;51.11;64.96;;
79200;Laerm;68628;48.714;9.472;2023-08-21T13:16:24;58.90;51.71;70.15;;
79200;Laerm;68628;48.714;9.472;2023-08-21T13:18:49;61.16;54.14;76.91;;
79200;Laerm;68628;48.714;9.472;2023-08-21T13:21:15;58.30;51.94;68.79;;
79200;Laerm;68628;48.714;9.472;2023-08-21T13:23:40;59.08;51.74;69.64;;
79200;Laerm;68628;48.714;9.472;2023-08-21T13:26:06;58.14;52.27;64.85;;
79200;Laerm;68628;48.714;9.472;2023-08-21T13:28:32;61.78;54.19;72.48;;
79200;Laerm;68628;48.714;9.472;2023-08-21T13:30:57;60.60;53.23;70.03;;
79200;Laerm;68628;48.714;9.472;2023-08-21T13:33:23;60.47;54.69;70.34;;
79200;Laerm;68628;48.714;9.472;2023-08-21T13:35:49;61.98;53.74;74.18;;
79200;Laerm;68628;48.714;9.472;2023-08-21T13:38:16;60.42;53.44;69.09;;
79200;Laerm;68628;48.714;9.472;2023-08-21T13:40:41;60.07;53.18;70.65;;
79200;Laerm;68628;48.714;9.472;2023-08-21T13:43:07;62.78;52.49;69.66;;
79200;Laerm;68628;48.714;9.472;2023-08-21T13:45:36;63.15;54.12;73.86;;
79200;Laerm;68628;48.714;9.472;2023-08-21T13:48:02;64.77;56.56;70.99;;
79200;Laerm;68628;48.714;9.472;2023-08-21T13:50:29;60.92;53.59;71.04;;
79200;Laerm;68628;48.714;9.472;2023-08-21T13:52:55;64.38;52.97;75.46;;
79200;Laerm;68628;48.714;9.472;2023-08-21T13:55:22;60.82;54.86;69.07;;
79200;Laerm;68628;48.714;9.472;2023-08-21T13:57:48;59.99;52.49;75.83;;